createdAt,value
2022-08-17T00:00:42.598Z,16.97
2022-08-17T00:01:24.162Z,16.96
2022-08-17T00:02:26.267Z,16.93
2022-08-17T00:03:22.720Z,16.91
2022-08-17T00:04:22.573Z,16.89
2022-08-17T00:05:22.440Z,16.85
2022-08-17T00:06:22.807Z,16.86
2022-08-17T00:07:22.359Z,16.85
2022-08-17T00:08:22.375Z,16.83
2022-08-17T00:09:22.492Z,16.86
2022-08-17T00:10:22.564Z,16.86
2022-08-17T00:11:22.750Z,16.86
2022-08-17T00:12:41.997Z,16.83
2022-08-17T00:13:23.265Z,16.83
2022-08-17T00:14:22.265Z,16.82
2022-08-17T00:15:22.253Z,16.78
2022-08-17T00:16:22.581Z,16.76
2022-08-17T00:17:23.270Z,16.75
2022-08-17T00:19:06.483Z,16.73
2022-08-17T00:19:23.250Z,16.70
2022-08-17T00:20:23.401Z,16.67
2022-08-17T00:22:36.078Z,16.67
2022-08-17T00:23:32.413Z,16.67
2022-08-17T00:24:32.336Z,16.66
2022-08-17T00:25:32.385Z,16.67
2022-08-17T00:26:45.137Z,16.67
2022-08-17T00:27:32.328Z,16.66
2022-08-17T00:28:33.276Z,16.67
2022-08-17T00:29:32.286Z,16.66
2022-08-17T00:30:50.891Z,16.66
2022-08-17T00:31:33.702Z,16.66
2022-08-17T00:33:15.012Z,16.68
2022-08-17T00:33:39.468Z,16.67
2022-08-17T00:34:32.260Z,16.66
2022-08-17T00:35:32.662Z,16.64
2022-08-17T00:36:32.360Z,16.64
2022-08-17T00:37:32.174Z,16.64
2022-08-17T00:38:41.265Z,16.63
2022-08-17T00:39:41.443Z,16.61
2022-08-17T00:40:44.220Z,16.63
2022-08-17T00:41:33.249Z,16.60
2022-08-17T00:42:39.376Z,16.61
2022-08-17T00:44:53.195Z,16.57
2022-08-17T00:46:02.112Z,16.56
2022-08-17T00:46:53.012Z,16.53
2022-08-17T00:49:09.331Z,16.45
2022-08-17T00:50:17.705Z,16.42
2022-08-17T00:51:16.357Z,16.41
2022-08-17T00:52:10.713Z,16.38
2022-08-17T00:53:17.800Z,16.39
2022-08-17T00:54:16.291Z,16.35
2022-08-17T00:55:09.537Z,16.38
2022-08-17T00:56:16.848Z,16.35
2022-08-17T00:57:18.481Z,16.33
2022-08-17T00:58:09.104Z,16.34
2022-08-17T00:59:16.271Z,16.33
2022-08-17T01:00:18.101Z,16.33
2022-08-17T01:01:09.132Z,16.33
2022-08-17T01:02:16.213Z,16.30
2022-08-17T01:03:09.126Z,16.33
2022-08-17T01:04:16.234Z,16.31
2022-08-17T01:05:16.580Z,16.34
2022-08-17T01:06:08.987Z,16.38
2022-08-17T01:07:08.936Z,16.39
2022-08-17T01:08:08.933Z,16.39
2022-08-17T01:09:08.875Z,16.33
2022-08-17T01:11:00.039Z,16.34
2022-08-17T01:11:09.907Z,16.33
2022-08-17T01:12:08.915Z,16.31
2022-08-17T01:13:08.797Z,16.30
2022-08-17T01:14:08.817Z,16.34
2022-08-17T01:15:08.805Z,16.33
2022-08-17T01:16:09.252Z,16.33
2022-08-17T01:17:08.788Z,16.33
2022-08-17T01:18:08.765Z,16.35
2022-08-17T01:19:08.767Z,16.38
2022-08-17T01:20:08.725Z,16.38
2022-08-17T01:21:08.737Z,16.38
2022-08-17T01:22:09.131Z,16.34
2022-08-17T01:23:08.718Z,16.34
2022-08-17T01:24:08.694Z,16.34
2022-08-17T01:25:08.665Z,16.35
2022-08-17T01:26:08.682Z,16.35
2022-08-17T01:27:10.081Z,16.39
2022-08-17T01:28:09.047Z,16.39
2022-08-17T01:29:08.594Z,16.39
2022-08-17T01:30:57.252Z,16.35
2022-08-17T01:31:09.648Z,16.33
2022-08-17T01:32:08.604Z,16.31
2022-08-17T01:33:08.573Z,16.28
2022-08-17T01:34:08.959Z,16.27
2022-08-17T01:35:08.552Z,16.24
2022-08-17T01:36:08.593Z,16.23
2022-08-17T01:37:08.542Z,16.23
2022-08-17T01:38:08.505Z,16.20
2022-08-17T01:39:08.846Z,16.20
2022-08-17T01:40:08.597Z,16.17
2022-08-17T01:41:08.443Z,16.17
2022-08-17T01:42:08.472Z,16.15
2022-08-17T01:43:08.457Z,16.14
2022-08-17T01:44:08.850Z,16.11
2022-08-17T01:45:08.404Z,16.14
2022-08-17T01:46:08.431Z,16.12
2022-08-17T01:47:08.400Z,16.14
2022-08-17T01:48:08.361Z,16.12
2022-08-17T01:49:08.757Z,16.12
2022-08-17T01:50:08.350Z,16.11
2022-08-17T01:51:08.333Z,16.08
2022-08-17T01:52:08.318Z,16.05
2022-08-17T01:53:08.720Z,16.05
2022-08-17T01:54:08.332Z,16.04
2022-08-17T01:55:08.284Z,16.04
2022-08-17T01:56:08.270Z,16.02
2022-08-17T01:57:08.319Z,16.02
2022-08-17T01:58:08.628Z,16.01
2022-08-17T01:59:08.248Z,16.01
2022-08-17T02:00:08.231Z,16.01
2022-08-17T02:01:08.243Z,15.97
2022-08-17T02:02:08.185Z,15.94
2022-08-17T02:03:08.500Z,15.93
2022-08-17T02:04:08.158Z,15.90
2022-08-17T02:05:08.149Z,15.92
2022-08-17T02:06:27.898Z,15.89
2022-08-17T02:07:09.108Z,15.89
2022-08-17T02:08:08.586Z,15.89
2022-08-17T02:09:09.097Z,15.87
2022-08-17T02:10:20.352Z,15.84
2022-08-17T02:11:11.696Z,15.84
2022-08-17T02:12:37.595Z,15.83
2022-08-17T02:13:09.386Z,15.84
2022-08-17T02:14:08.028Z,15.86
2022-08-17T02:15:07.992Z,15.86
2022-08-17T02:16:07.990Z,15.84
2022-08-17T02:17:08.041Z,15.86
2022-08-17T02:18:08.406Z,15.84
2022-08-17T02:19:08.024Z,15.84
2022-08-17T02:20:07.949Z,15.84
2022-08-17T02:21:07.946Z,15.84
2022-08-17T02:22:08.794Z,15.84
2022-08-17T02:23:08.347Z,15.86
2022-08-17T02:24:07.894Z,15.87
2022-08-17T02:25:07.895Z,15.89
2022-08-17T02:26:07.906Z,15.90
2022-08-17T02:27:08.225Z,15.92
2022-08-17T02:28:07.877Z,15.94
2022-08-17T02:29:07.841Z,15.96
2022-08-17T02:30:59.779Z,16.00
2022-08-17T02:31:08.841Z,16.00
2022-08-17T02:32:15.417Z,16.00
2022-08-17T02:33:15.267Z,16.01
2022-08-17T02:34:07.881Z,16.02
2022-08-17T02:35:07.742Z,16.04
2022-08-17T02:36:07.766Z,16.04
2022-08-17T02:37:15.314Z,16.04
2022-08-17T02:38:07.744Z,16.05
2022-08-17T02:39:07.685Z,16.07
2022-08-17T02:40:14.915Z,16.07
2022-08-17T02:41:07.674Z,16.08
2022-08-17T02:42:15.183Z,16.08
2022-08-17T02:43:07.642Z,16.11
2022-08-17T02:44:07.639Z,16.11
2022-08-17T02:45:07.642Z,16.11
2022-08-17T02:46:07.637Z,16.12
2022-08-17T02:47:07.940Z,16.12
2022-08-17T02:48:07.598Z,16.14
2022-08-17T02:49:07.569Z,16.12
2022-08-17T02:50:07.561Z,16.11
2022-08-17T02:51:07.559Z,16.11
2022-08-17T02:52:07.532Z,16.11
2022-08-17T02:53:08.183Z,16.08
2022-08-17T02:54:41.031Z,16.07
2022-08-17T02:55:08.512Z,16.05
2022-08-17T02:56:07.489Z,16.04
2022-08-17T02:57:07.478Z,16.01
2022-08-17T02:58:07.479Z,16.01
2022-08-17T02:59:07.878Z,16.01
2022-08-17T03:00:07.446Z,16.00
2022-08-17T03:01:07.419Z,15.97
2022-08-17T03:02:07.497Z,15.94
2022-08-17T03:03:07.398Z,15.96
2022-08-17T03:04:07.397Z,15.93
2022-08-17T03:05:07.859Z,15.92
2022-08-17T03:06:07.398Z,15.90
2022-08-17T03:07:07.510Z,15.89
2022-08-17T03:08:07.352Z,15.89
2022-08-17T03:09:08.577Z,15.86
2022-08-17T03:10:07.377Z,15.87
2022-08-17T03:11:07.700Z,15.86
2022-08-17T03:12:07.295Z,15.86
2022-08-17T03:13:07.252Z,15.86
2022-08-17T03:14:07.264Z,15.86
2022-08-17T03:15:07.247Z,15.87
2022-08-17T03:16:07.575Z,15.87
2022-08-17T03:17:07.195Z,15.87
2022-08-17T03:18:07.222Z,15.89
2022-08-17T03:19:08.172Z,15.90
2022-08-17T03:20:07.207Z,15.90
2022-08-17T03:21:07.145Z,15.90
2022-08-17T03:22:35.614Z,15.92
2022-08-17T03:23:08.135Z,15.92
2022-08-17T03:24:09.061Z,15.93
2022-08-17T03:25:10.597Z,15.94
2022-08-17T03:26:07.106Z,15.96
2022-08-17T03:27:08.583Z,15.96
2022-08-17T03:28:07.081Z,15.96
2022-08-17T03:29:07.065Z,15.94
2022-08-17T03:30:07.054Z,15.96
2022-08-17T03:31:07.013Z,15.96
2022-08-17T03:32:07.019Z,15.97
2022-08-17T03:33:11.339Z,16.00
2022-08-17T03:34:11.912Z,16.01
2022-08-17T03:35:06.989Z,16.01
2022-08-17T03:36:06.972Z,16.00
2022-08-17T03:37:07.024Z,16.01
2022-08-17T03:38:07.343Z,16.02
2022-08-17T03:39:06.933Z,16.05
2022-08-17T03:40:06.979Z,16.07
2022-08-17T03:41:06.922Z,16.07
2022-08-17T03:42:06.900Z,16.08
2022-08-17T03:43:07.222Z,16.09
2022-08-17T03:44:06.878Z,16.11
2022-08-17T03:45:06.859Z,16.14
2022-08-17T03:46:11.099Z,16.15
2022-08-17T03:47:07.830Z,16.15
2022-08-17T03:48:07.263Z,16.15
2022-08-17T03:49:06.822Z,16.17
2022-08-17T03:50:10.392Z,16.14
2022-08-17T03:51:08.517Z,16.12
2022-08-17T03:52:06.777Z,16.09
2022-08-17T03:53:07.190Z,16.09
2022-08-17T03:54:06.739Z,16.08
2022-08-17T03:55:06.723Z,16.05
2022-08-17T03:56:06.708Z,16.05
2022-08-17T03:57:06.720Z,16.05
2022-08-17T03:58:07.998Z,16.04
2022-08-17T03:59:07.131Z,16.07
2022-08-17T04:00:08.369Z,16.07
2022-08-17T04:01:06.726Z,16.08
2022-08-17T04:02:14.857Z,16.08
2022-08-17T04:03:15.178Z,16.07
2022-08-17T04:04:07.066Z,16.07
2022-08-17T04:05:06.611Z,16.08
2022-08-17T04:06:06.867Z,16.08
2022-08-17T04:07:06.626Z,16.07
2022-08-17T04:08:06.580Z,16.07
2022-08-17T04:09:06.563Z,16.08
2022-08-17T04:10:06.846Z,16.09
2022-08-17T04:11:06.526Z,16.08
2022-08-17T04:12:06.540Z,16.08
2022-08-17T04:13:06.506Z,16.08
2022-08-17T04:14:06.876Z,16.05
2022-08-17T04:15:06.475Z,16.05
2022-08-17T04:16:06.535Z,16.02
2022-08-17T04:17:06.456Z,16.01
2022-08-17T04:18:07.557Z,16.00
2022-08-17T04:19:06.783Z,16.00
2022-08-17T04:20:06.425Z,15.97
2022-08-17T04:21:06.413Z,16.00
2022-08-17T04:22:06.404Z,16.04
2022-08-17T04:23:06.384Z,16.05
2022-08-17T04:24:06.855Z,16.08
2022-08-17T04:25:06.363Z,16.07
2022-08-17T04:26:06.345Z,16.08
2022-08-17T04:27:06.318Z,16.09
2022-08-17T04:28:15.793Z,16.08
2022-08-17T04:29:07.726Z,16.08
2022-08-17T04:30:06.276Z,16.07
2022-08-17T04:31:06.276Z,16.05
2022-08-17T04:32:06.277Z,16.04
2022-08-17T04:33:07.343Z,16.04
2022-08-17T04:34:06.669Z,16.05
2022-08-17T04:35:06.240Z,16.04
2022-08-17T04:36:06.218Z,16.01
2022-08-17T04:37:06.192Z,16.01
2022-08-17T04:38:06.186Z,16.01
2022-08-17T04:39:06.168Z,16.02
2022-08-17T04:40:06.556Z,16.02
2022-08-17T04:41:06.165Z,16.04
2022-08-17T04:42:06.202Z,16.04
2022-08-17T04:43:06.122Z,16.04
2022-08-17T04:44:06.161Z,16.02
2022-08-17T04:45:06.098Z,16.01
2022-08-17T04:46:06.432Z,16.01
2022-08-17T04:47:06.082Z,16.00
2022-08-17T04:48:06.071Z,16.00
2022-08-17T04:49:06.031Z,16.00
2022-08-17T04:50:06.042Z,16.00
2022-08-17T04:51:06.042Z,15.97
2022-08-17T04:52:06.360Z,16.01
2022-08-17T04:53:05.989Z,16.00
2022-08-17T04:54:06.026Z,16.01
2022-08-17T04:55:05.986Z,16.04
2022-08-17T04:56:05.985Z,16.01
2022-08-17T04:57:05.989Z,16.02
2022-08-17T04:58:06.367Z,16.09
2022-08-17T04:59:05.929Z,16.12
2022-08-17T05:00:06.064Z,16.17
2022-08-17T05:01:06.087Z,16.24
2022-08-17T05:02:05.877Z,16.28
2022-08-17T05:03:06.270Z,16.34
2022-08-17T05:04:21.466Z,16.39
2022-08-17T05:05:06.826Z,16.45
2022-08-17T05:06:05.841Z,16.50
2022-08-17T05:07:05.829Z,16.57
2022-08-17T05:08:05.800Z,16.63
2022-08-17T05:09:06.167Z,16.71
2022-08-17T05:10:05.776Z,16.75
2022-08-17T05:11:05.764Z,16.83
2022-08-17T05:12:05.725Z,16.89
2022-08-17T05:13:05.734Z,16.98
2022-08-17T05:14:05.696Z,17.06
2022-08-17T05:15:06.057Z,17.12
2022-08-17T05:16:05.713Z,17.18
2022-08-17T05:17:07.478Z,17.23
2022-08-17T05:18:06.706Z,17.28
2022-08-17T05:19:05.646Z,17.36
2022-08-17T05:20:05.624Z,17.43
2022-08-17T05:21:05.982Z,17.52
2022-08-17T05:22:05.659Z,17.58
2022-08-17T05:23:05.597Z,17.64
2022-08-17T05:24:08.025Z,17.74
2022-08-17T05:25:06.574Z,17.82
2022-08-17T05:26:06.304Z,17.87
2022-08-17T05:27:18.743Z,17.97
2022-08-17T05:28:05.865Z,18.03
2022-08-17T05:29:05.519Z,18.08
2022-08-17T05:30:05.542Z,18.17
2022-08-17T05:31:05.513Z,18.23
2022-08-17T05:32:38.805Z,18.27
2022-08-17T05:33:06.474Z,18.32
2022-08-17T05:34:05.463Z,18.32
2022-08-17T05:35:05.453Z,18.33
2022-08-17T05:36:05.467Z,18.32
2022-08-17T05:37:05.415Z,18.30
2022-08-17T05:38:05.843Z,18.29
2022-08-17T05:39:05.401Z,18.27
2022-08-17T05:40:05.405Z,18.32
2022-08-17T05:41:05.443Z,18.35
2022-08-17T05:42:05.813Z,18.35
2022-08-17T05:43:05.353Z,18.36
2022-08-17T05:44:05.649Z,18.35
2022-08-17T05:45:05.322Z,18.37
2022-08-17T05:46:05.345Z,18.36
2022-08-17T05:47:05.748Z,18.42
2022-08-17T05:48:05.293Z,18.47
2022-08-17T05:49:05.284Z,18.52
2022-08-17T05:50:09.747Z,18.57
2022-08-17T05:51:05.300Z,18.60
2022-08-17T05:52:05.222Z,18.69
2022-08-17T05:53:05.593Z,18.73
2022-08-17T05:54:05.183Z,18.80
2022-08-17T05:55:05.242Z,18.87
2022-08-17T05:56:05.192Z,18.90
2022-08-17T05:57:05.150Z,18.99
2022-08-17T05:58:05.173Z,19.07
2022-08-17T05:59:05.552Z,19.19
2022-08-17T06:00:05.113Z,19.28
2022-08-17T06:01:05.190Z,19.33
2022-08-17T06:02:05.099Z,19.41
2022-08-17T06:03:05.097Z,19.46
2022-08-17T06:04:05.066Z,19.51
2022-08-17T06:05:05.508Z,19.40
2022-08-17T06:06:05.027Z,19.41
2022-08-17T06:07:05.051Z,19.50
2022-08-17T06:08:05.026Z,19.65
2022-08-17T06:09:04.992Z,19.78
2022-08-17T06:10:05.524Z,19.91
2022-08-17T06:11:04.972Z,20.03
2022-08-17T06:12:04.990Z,20.16
2022-08-17T06:13:04.962Z,20.26
2022-08-17T06:14:04.930Z,20.36
2022-08-17T06:15:04.930Z,20.48
2022-08-17T06:16:05.324Z,20.59
2022-08-17T06:17:05.913Z,20.85
2022-08-17T06:18:04.928Z,21.32
2022-08-17T06:19:04.863Z,21.88
2022-08-17T06:20:05.312Z,22.30
2022-08-17T06:21:04.849Z,22.45
2022-08-17T06:22:04.941Z,22.62
2022-08-17T06:23:04.820Z,22.57
2022-08-17T06:24:04.834Z,22.52
2022-08-17T06:25:05.178Z,22.65
2022-08-17T06:26:05.779Z,23.07
2022-08-17T06:27:05.160Z,23.61
2022-08-17T06:28:05.409Z,23.97
2022-08-17T06:29:04.741Z,23.85
2022-08-17T06:30:05.115Z,23.73
2022-08-17T06:31:04.751Z,24.13
2022-08-17T06:32:04.717Z,24.68
2022-08-17T06:33:04.699Z,24.98
2022-08-17T06:34:05.366Z,25.27
2022-08-17T06:35:04.990Z,25.32
2022-08-17T06:36:09.241Z,24.80
2022-08-17T06:37:05.638Z,24.58
2022-08-17T06:38:04.629Z,24.69
2022-08-17T06:39:04.625Z,24.57
2022-08-17T06:40:04.667Z,24.71
2022-08-17T06:41:05.009Z,24.52
2022-08-17T06:42:04.599Z,24.57
2022-08-17T06:43:06.388Z,25.03
2022-08-17T06:44:04.539Z,25.45
2022-08-17T06:45:04.539Z,25.65
2022-08-17T06:46:04.536Z,25.77
2022-08-17T06:47:04.956Z,25.67
2022-08-17T06:48:04.546Z,25.36
2022-08-17T06:49:04.560Z,25.00
2022-08-17T06:50:05.573Z,24.93
2022-08-17T06:51:04.488Z,24.99
2022-08-17T06:52:04.553Z,25.09
2022-08-17T06:53:04.782Z,25.24
2022-08-17T06:54:04.487Z,25.40
2022-08-17T06:55:04.432Z,25.64
2022-08-17T06:56:04.418Z,25.62
2022-08-17T06:57:04.442Z,25.58
2022-08-17T06:58:05.225Z,25.46
2022-08-17T06:59:05.741Z,25.79
2022-08-17T07:00:04.530Z,25.92
2022-08-17T07:01:04.418Z,26.13
2022-08-17T07:02:04.381Z,26.55
2022-08-17T07:03:04.604Z,26.58
2022-08-17T07:04:06.755Z,26.32
2022-08-17T07:05:05.283Z,26.10
2022-08-17T07:06:04.281Z,26.12
2022-08-17T07:07:04.268Z,26.06
2022-08-17T07:08:04.256Z,26.25
2022-08-17T07:09:04.259Z,26.32
2022-08-17T07:10:04.297Z,26.44
2022-08-17T07:11:04.228Z,26.65
2022-08-17T07:12:04.198Z,26.77
2022-08-17T07:13:04.180Z,26.89
2022-08-17T07:14:04.167Z,27.13
2022-08-17T07:15:04.179Z,27.32
2022-08-17T07:16:04.730Z,27.27
2022-08-17T07:17:04.138Z,27.31
2022-08-17T07:18:04.128Z,27.37
2022-08-17T07:19:04.109Z,27.78
2022-08-17T07:20:04.108Z,28.06
2022-08-17T07:21:04.079Z,28.34
2022-08-17T07:22:04.684Z,28.58
2022-08-17T07:23:04.049Z,28.86
2022-08-17T07:24:04.048Z,28.78
2022-08-17T07:25:04.076Z,28.83
2022-08-17T07:26:04.016Z,28.92
2022-08-17T07:27:04.019Z,29.28
2022-08-17T07:28:06.100Z,29.48
2022-08-17T07:29:03.982Z,29.94
2022-08-17T07:30:09.506Z,30.26
2022-08-17T07:31:04.961Z,30.19
2022-08-17T07:32:03.968Z,29.86
2022-08-17T07:33:04.430Z,29.95
2022-08-17T07:34:03.933Z,30.10
2022-08-17T07:35:03.910Z,30.32
2022-08-17T07:36:03.891Z,30.60
2022-08-17T07:37:03.889Z,30.64
2022-08-17T07:38:03.889Z,30.70
2022-08-17T07:39:04.262Z,30.67
2022-08-17T07:40:15.981Z,30.69
2022-08-17T07:41:04.873Z,30.45
2022-08-17T07:42:03.814Z,29.26
2022-08-17T07:43:04.963Z,28.25
2022-08-17T07:44:04.202Z,27.82
2022-08-17T07:45:03.799Z,27.31
2022-08-17T07:46:03.810Z,26.89
2022-08-17T07:47:03.769Z,26.37
2022-08-17T07:48:03.749Z,25.87
2022-08-17T07:49:03.736Z,25.67
2022-08-17T07:50:04.151Z,25.77
2022-08-17T07:51:03.742Z,25.80
2022-08-17T07:52:24.221Z,25.76
2022-08-17T07:53:04.682Z,25.82
2022-08-17T07:54:13.467Z,25.92
2022-08-17T07:55:05.077Z,26.21
2022-08-17T07:56:03.641Z,26.47
2022-08-17T07:57:03.680Z,26.77
2022-08-17T07:58:03.626Z,27.10
2022-08-17T07:59:03.611Z,27.31
2022-08-17T08:00:03.901Z,27.34
2022-08-17T08:01:03.600Z,27.34
2022-08-17T08:02:03.661Z,27.25
2022-08-17T08:03:03.570Z,27.13
2022-08-17T08:04:03.551Z,27.04
2022-08-17T08:05:06.652Z,27.00
2022-08-17T08:06:03.540Z,26.89
2022-08-17T08:07:03.510Z,26.85
2022-08-17T08:08:03.514Z,26.70
2022-08-17T08:09:03.511Z,26.60
2022-08-17T08:10:03.842Z,26.47
2022-08-17T08:11:03.472Z,26.44
2022-08-17T08:12:03.451Z,26.45
2022-08-17T08:13:03.444Z,26.37
2022-08-17T08:14:03.439Z,26.29
2022-08-17T08:15:03.621Z,26.36
2022-08-17T08:16:03.408Z,26.40
2022-08-17T08:17:03.382Z,26.48
2022-08-17T08:18:03.377Z,26.57
2022-08-17T08:19:10.517Z,26.72
2022-08-17T08:20:51.555Z,26.85
2022-08-17T08:21:10.436Z,26.99
2022-08-17T08:22:10.481Z,27.10
2022-08-17T08:23:10.427Z,27.14
2022-08-17T08:24:10.444Z,27.34
2022-08-17T08:25:10.444Z,27.49
2022-08-17T08:26:13.159Z,27.62
2022-08-17T08:27:10.434Z,27.62
2022-08-17T08:28:10.407Z,27.69
2022-08-17T08:29:11.733Z,27.79
2022-08-17T08:30:10.353Z,27.82
2022-08-17T08:31:03.538Z,27.74
2022-08-17T08:32:03.224Z,27.77
2022-08-17T08:33:03.272Z,28.02
2022-08-17T08:34:03.208Z,28.31
2022-08-17T08:35:03.687Z,28.59
2022-08-17T08:36:03.605Z,28.92
2022-08-17T08:37:16.381Z,29.24
2022-08-17T08:38:04.152Z,29.26
2022-08-17T08:39:03.111Z,29.43
2022-08-17T08:40:03.199Z,29.41
2022-08-17T08:41:03.117Z,29.19
2022-08-17T08:42:03.170Z,29.30
2022-08-17T08:43:03.080Z,29.42
2022-08-17T08:44:03.050Z,29.45
2022-08-17T08:45:04.814Z,28.77
2022-08-17T08:46:03.455Z,27.88
2022-08-17T08:47:03.029Z,27.50
2022-08-17T08:48:05.553Z,27.34
2022-08-17T08:49:10.024Z,27.41
2022-08-17T08:50:05.105Z,27.54
2022-08-17T08:51:03.278Z,27.63
2022-08-17T08:52:02.960Z,27.65
2022-08-17T08:53:02.970Z,27.75
2022-08-17T08:54:02.931Z,27.77
2022-08-17T08:55:03.334Z,27.72
2022-08-17T08:56:02.900Z,27.69
2022-08-17T08:57:24.424Z,27.65
2022-08-17T08:58:03.889Z,27.63
2022-08-17T08:59:03.111Z,27.62
2022-08-17T09:00:02.886Z,27.50
2022-08-17T09:01:03.326Z,27.22
2022-08-17T09:02:02.833Z,27.19
2022-08-17T09:03:02.814Z,27.24
2022-08-17T09:04:19.577Z,27.28
2022-08-17T09:05:15.564Z,27.34
2022-08-17T09:06:03.788Z,27.06
2022-08-17T09:07:02.770Z,26.75
2022-08-17T09:08:02.772Z,26.51
2022-08-17T09:09:02.761Z,26.28
2022-08-17T09:10:03.089Z,25.99
2022-08-17T09:11:02.729Z,25.87
2022-08-17T09:12:03.817Z,25.76
2022-08-17T09:13:09.603Z,25.69
2022-08-17T09:14:03.672Z,25.69
2022-08-17T09:15:02.989Z,25.76
2022-08-17T09:16:02.661Z,25.83
2022-08-17T09:17:02.652Z,25.90
2022-08-17T09:18:59.068Z,26.05
2022-08-17T09:19:04.862Z,26.18
2022-08-17T09:20:03.635Z,26.35
2022-08-17T09:21:02.661Z,26.50
2022-08-17T09:22:02.640Z,26.58
2022-08-17T09:23:02.560Z,26.72
2022-08-17T09:24:02.578Z,26.82
2022-08-17T09:25:02.536Z,26.94
2022-08-17T09:26:02.743Z,27.03
2022-08-17T09:27:02.504Z,27.12
2022-08-17T09:28:02.494Z,27.06
2022-08-17T09:29:02.492Z,27.06
2022-08-17T09:30:02.489Z,27.09
2022-08-17T09:31:02.465Z,27.12
2022-08-17T09:32:02.871Z,27.14
2022-08-17T09:33:02.478Z,27.17
2022-08-17T09:34:02.426Z,27.21
2022-08-17T09:35:02.401Z,27.17
2022-08-17T09:36:02.409Z,27.09
2022-08-17T09:37:02.371Z,26.94
2022-08-17T09:38:02.419Z,26.88
2022-08-17T09:39:02.361Z,26.82
2022-08-17T09:40:02.500Z,26.82
2022-08-17T09:41:02.329Z,26.72
2022-08-17T09:42:02.334Z,26.69
2022-08-17T09:43:02.821Z,26.48
2022-08-17T09:44:02.314Z,26.26
2022-08-17T09:45:02.293Z,26.10
2022-08-17T09:46:02.281Z,26.09
2022-08-17T09:47:02.249Z,26.10
2022-08-17T09:48:02.251Z,26.17
2022-08-17T09:49:02.728Z,26.26
2022-08-17T09:50:02.233Z,26.32
2022-08-17T09:51:05.734Z,26.28
2022-08-17T09:52:02.199Z,26.33
2022-08-17T09:53:02.177Z,26.35
2022-08-17T09:54:34.928Z,26.30
2022-08-17T09:55:03.150Z,26.33
2022-08-17T09:56:02.159Z,26.39
2022-08-17T09:57:27.983Z,26.33
2022-08-17T09:58:03.129Z,26.37
2022-08-17T09:59:02.494Z,26.37
2022-08-17T10:00:02.121Z,26.36
2022-08-17T10:01:02.155Z,26.35
2022-08-17T10:02:02.066Z,26.32
2022-08-17T10:03:02.083Z,26.33
2022-08-17T10:04:02.068Z,26.36
2022-08-17T10:05:02.024Z,26.44
2022-08-17T10:06:02.045Z,26.55
2022-08-17T10:07:02.019Z,26.63
2022-08-17T10:08:02.469Z,26.65
2022-08-17T10:09:02.595Z,26.69
2022-08-17T10:10:02.039Z,26.75
2022-08-17T10:11:01.990Z,26.76
2022-08-17T10:12:01.940Z,26.75
2022-08-17T10:13:02.268Z,26.76
2022-08-17T10:14:01.959Z,26.70
2022-08-17T10:15:08.117Z,26.62
2022-08-17T10:16:02.981Z,26.58
2022-08-17T10:17:01.917Z,26.57
2022-08-17T10:18:02.331Z,26.51
2022-08-17T10:19:01.870Z,26.50
2022-08-17T10:20:01.981Z,26.45
2022-08-17T10:21:01.889Z,26.48
2022-08-17T10:22:32.704Z,26.37
2022-08-17T10:23:03.290Z,26.28
2022-08-17T10:24:01.809Z,26.20
2022-08-17T10:25:21.907Z,26.13
2022-08-17T10:26:02.798Z,26.06
2022-08-17T10:27:02.539Z,26.02
2022-08-17T10:28:02.200Z,25.97
2022-08-17T10:29:01.740Z,25.94
2022-08-17T10:30:01.764Z,25.88
2022-08-17T10:31:30.938Z,25.83
2022-08-17T10:32:02.699Z,25.73
2022-08-17T10:33:01.694Z,25.61
2022-08-17T10:34:02.044Z,25.54
2022-08-17T10:35:01.679Z,25.50
2022-08-17T10:36:01.705Z,25.50
2022-08-17T10:37:01.780Z,25.51
2022-08-17T10:38:01.705Z,25.52
2022-08-17T10:39:02.108Z,25.55
2022-08-17T10:40:01.662Z,25.55
2022-08-17T10:41:01.609Z,25.57
2022-08-17T10:42:01.571Z,25.60
2022-08-17T10:43:01.663Z,25.62
2022-08-17T10:44:40.321Z,25.61
2022-08-17T10:45:02.979Z,25.61
2022-08-17T10:46:17.100Z,25.61
2022-08-17T10:47:02.552Z,25.58
2022-08-17T10:48:05.789Z,25.55
2022-08-17T10:49:03.145Z,25.52
2022-08-17T10:50:01.470Z,25.50
2022-08-17T10:51:01.465Z,25.50
2022-08-17T10:52:01.455Z,25.57
2022-08-17T10:53:02.849Z,25.69
2022-08-17T10:54:01.420Z,25.85
2022-08-17T10:55:01.446Z,25.97
2022-08-17T10:56:01.411Z,26.13
2022-08-17T10:57:01.400Z,26.29
2022-08-17T10:58:01.406Z,26.44
2022-08-17T10:59:01.347Z,26.60
2022-08-17T11:00:01.361Z,26.67
2022-08-17T11:01:01.920Z,26.77
2022-08-17T11:02:01.369Z,26.82
2022-08-17T11:03:01.338Z,26.91
2022-08-17T11:04:01.328Z,27.00
2022-08-17T11:05:01.365Z,27.12
2022-08-17T11:06:01.320Z,27.19
2022-08-17T11:07:01.278Z,27.37
2022-08-17T11:08:01.270Z,27.69
2022-08-17T11:09:01.269Z,28.02
2022-08-17T11:10:01.270Z,28.30
2022-08-17T11:11:01.529Z,28.46
2022-08-17T11:12:01.209Z,28.51
2022-08-17T11:13:01.179Z,28.61
2022-08-17T11:14:01.206Z,28.41
2022-08-17T11:15:01.148Z,28.30
2022-08-17T11:16:06.125Z,28.25
2022-08-17T11:17:02.166Z,28.31
2022-08-17T11:18:01.347Z,28.40
2022-08-17T11:19:01.916Z,28.52
2022-08-17T11:20:01.167Z,28.59
2022-08-17T11:21:01.103Z,28.61
2022-08-17T11:22:01.080Z,28.66
2022-08-17T11:23:01.094Z,28.58
2022-08-17T11:24:01.059Z,28.44
2022-08-17T11:25:01.070Z,28.07
2022-08-17T11:26:01.436Z,27.87
2022-08-17T11:27:00.988Z,27.75
2022-08-17T11:28:01.010Z,27.67
2022-08-17T11:29:00.976Z,27.65
2022-08-17T11:30:02.517Z,27.67
2022-08-17T11:31:01.189Z,27.55
2022-08-17T11:32:00.929Z,27.36
2022-08-17T11:33:00.972Z,27.28
2022-08-17T11:34:00.924Z,27.25
2022-08-17T11:35:00.897Z,27.17
2022-08-17T11:36:00.932Z,27.02
2022-08-17T11:37:00.888Z,26.92
2022-08-17T11:38:00.899Z,26.85
2022-08-17T11:39:00.876Z,26.82
2022-08-17T11:40:01.104Z,26.84
2022-08-17T11:41:00.868Z,26.88
2022-08-17T11:42:00.820Z,26.91
2022-08-17T11:43:00.827Z,26.92
2022-08-17T11:44:01.990Z,26.92
2022-08-17T11:45:01.020Z,26.97
2022-08-17T11:46:00.767Z,27.02
2022-08-17T11:47:00.768Z,26.94
2022-08-17T11:48:26.513Z,26.91
2022-08-17T11:49:01.772Z,26.94
2022-08-17T11:50:01.157Z,26.88
2022-08-17T11:51:00.701Z,26.82
2022-08-17T11:52:01.200Z,26.77
2022-08-17T11:53:00.976Z,26.72
2022-08-17T11:54:30.633Z,26.75
2022-08-17T11:55:24.183Z,26.82
2022-08-17T11:56:01.651Z,26.76
2022-08-17T11:57:00.609Z,26.67
2022-08-17T11:58:00.731Z,26.52
2022-08-17T11:59:00.588Z,26.45
2022-08-17T12:00:00.828Z,26.45
2022-08-17T12:01:00.572Z,26.54
2022-08-17T12:02:00.558Z,26.48
2022-08-17T12:03:00.560Z,26.44
2022-08-17T12:04:00.552Z,26.47
2022-08-17T12:05:00.771Z,26.54
2022-08-17T12:06:00.506Z,26.67
2022-08-17T12:07:00.488Z,26.73
2022-08-17T12:08:00.476Z,26.89
2022-08-17T12:09:00.542Z,27.10
2022-08-17T12:10:01.007Z,27.34
2022-08-17T12:11:00.491Z,27.57
2022-08-17T12:12:13.645Z,27.79
2022-08-17T12:13:01.791Z,27.99
2022-08-17T12:14:01.849Z,28.25
2022-08-17T12:15:11.358Z,28.40
2022-08-17T12:16:01.383Z,28.36
2022-08-17T12:17:00.489Z,28.44
2022-08-17T12:18:00.358Z,28.43
2022-08-17T12:19:00.569Z,28.49
2022-08-17T12:20:00.340Z,28.61
2022-08-17T12:21:01.477Z,28.78
2022-08-17T12:22:00.309Z,28.66
2022-08-17T12:23:00.359Z,28.70
2022-08-17T12:24:00.723Z,28.62
2022-08-17T12:25:00.308Z,28.68
2022-08-17T12:26:00.347Z,28.73
2022-08-17T12:27:00.230Z,28.98
2022-08-17T12:28:06.430Z,29.14
2022-08-17T12:29:01.262Z,29.11
2022-08-17T12:30:00.213Z,29.11
2022-08-17T12:31:00.209Z,29.16
2022-08-17T12:32:00.209Z,29.05
2022-08-17T12:33:00.210Z,29.08
2022-08-17T12:34:01.079Z,29.26
2022-08-17T12:35:00.389Z,29.21
2022-08-17T12:36:00.349Z,29.24
2022-08-17T12:37:00.128Z,29.31
2022-08-17T12:38:00.148Z,29.57
2022-08-17T12:39:00.141Z,29.90
2022-08-17T12:40:01.344Z,30.00
2022-08-17T12:41:00.282Z,30.15
2022-08-17T12:42:02.522Z,29.86
2022-08-17T12:43:00.045Z,29.70
2022-08-17T12:44:00.101Z,29.68
2022-08-17T12:45:00.018Z,29.45
2022-08-17T12:46:00.130Z,29.12
2022-08-17T12:46:59.993Z,29.11
2022-08-17T12:48:00.034Z,29.19
2022-08-17T12:49:00.240Z,28.96
2022-08-17T12:49:59.960Z,28.83
2022-08-17T12:51:00.021Z,29.00
2022-08-17T12:52:00.119Z,29.14
2022-08-17T12:53:02.221Z,29.39
2022-08-17T12:53:59.939Z,29.60
2022-08-17T12:54:59.889Z,29.53
2022-08-17T12:55:59.872Z,29.53